createdAt,value
2019-01-10T00:02:18.611Z,98019.02
2019-01-10T00:05:56.109Z,98017.78
2019-01-10T00:07:45.303Z,98006.70
2019-01-10T00:09:21.253Z,98015.09
2019-01-10T00:13:10.687Z,98024.51
2019-01-10T00:15:24.006Z,98028.34
2019-01-10T00:17:01.104Z,98030.66
2019-01-10T00:20:33.509Z,98032.38
2019-01-10T00:22:48.241Z,98038.75
2019-01-10T00:24:23.958Z,98035.51
2019-01-10T00:25:59.377Z,98039.77
2019-01-10T00:27:54.055Z,98035.06
2019-01-10T00:29:29.602Z,98029.77
2019-01-10T00:33:25.180Z,98029.46
2019-01-10T00:41:04.635Z,98032.78
2019-01-10T00:42:51.664Z,98035.23
2019-01-10T00:44:39.325Z,98045.88
2019-01-10T00:46:26.466Z,98042.45
2019-01-10T00:48:41.664Z,98041.33
2019-01-10T00:54:49.127Z,98043.56
2019-01-10T01:00:29.655Z,98048.59
2019-01-10T01:04:25.285Z,98048.72
2019-01-10T01:06:53.958Z,98047.52
2019-01-10T01:08:17.092Z,98048.86
2019-01-10T01:09:52.545Z,98045.17
2019-01-10T01:15:52.687Z,98049.16
2019-01-10T01:19:35.556Z,98046.37
2019-01-10T01:21:13.040Z,98045.13
2019-01-10T01:24:55.453Z,98050.09
2019-01-10T01:26:33.250Z,98055.91
2019-01-10T01:28:59.524Z,98052.41
2019-01-10T01:30:39.132Z,98062.48
2019-01-10T01:32:14.750Z,98054.31
2019-01-10T01:33:50.247Z,98051.63
2019-01-10T01:35:26.161Z,98051.63
2019-01-10T01:37:54.760Z,98058.23
2019-01-10T01:39:28.961Z,98058.82
2019-01-10T01:43:07.356Z,98066.84
2019-01-10T01:50:54.581Z,98066.63
2019-01-10T01:58:44.492Z,98073.59
2019-01-10T02:00:21.867Z,98082.77
2019-01-10T02:02:00.191Z,98086.88
2019-01-10T02:04:28.926Z,98094.52
2019-01-10T02:05:52.109Z,98097.20
2019-01-10T02:07:46.672Z,98101.67
2019-01-10T02:09:33.625Z,98096.98
2019-01-10T02:13:25.556Z,98100.64
2019-01-10T02:17:21.445Z,98104.67
2019-01-10T02:19:35.936Z,98100.64
2019-01-10T02:21:14.269Z,98095.94
2019-01-10T02:23:08.927Z,98107.61
2019-01-10T02:24:47.142Z,98110.06
2019-01-10T02:26:32.058Z,98104.02
2019-01-10T02:30:41.630Z,98111.18
2019-01-10T02:32:10.224Z,98104.58
2019-01-10T02:34:24.767Z,98111.18
2019-01-10T02:36:00.355Z,98113.53
2019-01-10T02:37:47.252Z,98115.20
2019-01-10T02:41:39.664Z,98116.44
2019-01-10T02:43:15.410Z,98120.13
2019-01-10T02:45:32.095Z,98117.77
2019-01-10T02:47:08.050Z,98123.49
2019-01-10T02:50:44.799Z,98129.53
2019-01-10T02:54:40.100Z,98125.64
2019-01-10T03:00:36.978Z,98130.42
2019-01-10T03:02:12.642Z,98125.52
2019-01-10T03:06:12.522Z,98132.80
2019-01-10T03:07:59.468Z,98129.98
2019-01-10T03:09:45.974Z,98126.73
2019-01-10T03:19:49.965Z,98120.25
2019-01-10T03:21:25.416Z,98119.34
2019-01-10T03:33:33.387Z,98118.92
2019-01-10T03:35:19.804Z,98113.44
2019-01-10T03:37:06.308Z,98119.36
2019-01-10T03:38:53.440Z,98119.83
2019-01-10T03:42:37.617Z,98119.83
2019-01-10T03:46:05.252Z,98110.86
2019-01-10T03:47:42.318Z,98117.38
2019-01-10T03:49:20.221Z,98115.78
2019-01-10T03:53:38.270Z,98112.09
2019-01-10T03:57:28.438Z,98114.57
2019-01-10T04:03:29.839Z,98111.65
2019-01-10T04:07:19.216Z,98110.66
2019-01-10T04:08:54.482Z,98102.94
2019-01-10T04:11:09.097Z,98110.87
2019-01-10T04:12:57.698Z,98101.46
2019-01-10T04:14:44.453Z,98095.20
2019-01-10T04:16:32.248Z,98099.69
2019-01-10T04:20:26.730Z,98103.81
2019-01-10T04:24:21.453Z,98119.94
2019-01-10T04:25:56.905Z,98116.58
2019-01-10T04:27:34.471Z,98112.56
2019-01-10T04:31:10.661Z,98114.55
2019-01-10T04:36:59.622Z,98114.34
2019-01-10T04:39:14.061Z,98117.24
2019-01-10T04:42:56.755Z,98128.33
2019-01-10T04:44:32.459Z,98120.28
2019-01-10T04:46:47.388Z,98132.58
2019-01-10T04:49:16.004Z,98131.22
2019-01-10T04:50:39.216Z,98135.94
2019-01-10T04:52:14.903Z,98137.39
2019-01-10T04:57:53.138Z,98136.94
2019-01-10T04:59:47.758Z,98136.05
2019-01-10T05:01:56.386Z,98136.15
2019-01-10T05:03:19.752Z,98141.63
2019-01-10T05:04:56.510Z,98138.63
2019-01-10T05:06:32.132Z,98142.63
2019-01-10T05:08:07.926Z,98144.77
2019-01-10T05:09:43.431Z,98146.22
2019-01-10T05:13:20.145Z,98149.91
2019-01-10T05:18:59.318Z,98143.30
2019-01-10T05:20:34.894Z,98141.63
2019-01-10T05:22:11.175Z,98135.48
2019-01-10T05:23:46.712Z,98134.93
2019-01-10T05:25:22.393Z,98134.02
2019-01-10T05:26:59.171Z,98129.65
2019-01-10T05:30:34.789Z,98142.98
2019-01-10T05:32:10.846Z,98143.31
2019-01-10T05:37:39.608Z,98131.46
2019-01-10T05:39:54.101Z,98139.63
2019-01-10T05:42:01.035Z,98143.07
2019-01-10T05:46:10.853Z,98145.75
2019-01-10T05:50:17.906Z,98146.32
2019-01-10T05:54:15.263Z,98143.19
2019-01-10T05:55:52.332Z,98153.23
2019-01-10T05:57:28.153Z,98148.78
2019-01-10T05:59:06.729Z,98153.48
2019-01-10T06:01:22.327Z,98149.45
2019-01-10T06:03:02.179Z,98149.79
2019-01-10T06:04:45.606Z,98144.75
2019-01-10T06:06:22.457Z,98153.59
2019-01-10T06:17:15.423Z,98152.82
2019-01-10T06:20:46.020Z,98153.02
2019-01-10T06:22:24.319Z,98154.03
2019-01-10T06:24:13.438Z,98151.81
2019-01-10T06:25:54.161Z,98155.71
2019-01-10T06:27:32.626Z,98153.82
2019-01-10T06:29:11.204Z,98150.01
2019-01-10T06:39:55.292Z,98173.04
2019-01-10T06:45:44.709Z,98163.87
2019-01-10T06:47:22.487Z,98175.41
2019-01-10T06:49:05.109Z,98175.51
2019-01-10T06:50:41.466Z,98180.55
2019-01-10T06:52:24.940Z,98179.30
2019-01-10T06:54:16.771Z,98173.27
2019-01-10T06:55:55.650Z,98178.76
2019-01-10T06:57:35.295Z,98182.11
2019-01-10T06:59:18.827Z,98193.40
2019-01-10T07:00:55.539Z,98195.86
2019-01-10T07:02:35.815Z,98201.67
2019-01-10T07:04:12.600Z,98202.33
2019-01-10T07:05:51.256Z,98198.64
2019-01-10T07:12:07.839Z,98205.91
2019-01-10T07:16:04.213Z,98212.72
2019-01-10T07:17:39.971Z,98216.87
2019-01-10T07:19:15.323Z,98220.46
2019-01-10T07:20:52.151Z,98220.66
2019-01-10T07:22:29.211Z,98215.42
2019-01-10T07:24:06.738Z,98219.11
2019-01-10T07:25:42.593Z,98217.87
2019-01-10T07:27:18.606Z,98221.80
2019-01-10T07:28:54.012Z,98219.56
2019-01-10T07:30:48.575Z,98223.02
2019-01-10T07:32:35.468Z,98227.27
2019-01-10T07:34:24.142Z,98228.71
2019-01-10T07:36:00.259Z,98229.85
2019-01-10T07:37:37.855Z,98231.75
2019-01-10T07:39:13.223Z,98228.05
2019-01-10T07:40:48.966Z,98230.50
2019-01-10T07:42:25.635Z,98228.84
2019-01-10T07:44:02.718Z,98230.53
2019-01-10T07:47:48.659Z,98225.52
2019-01-10T07:49:27.475Z,98232.66
2019-01-10T07:51:09.164Z,98233.56
2019-01-10T07:52:40.082Z,98236.14
2019-01-10T07:54:17.930Z,98239.59
2019-01-10T07:55:53.549Z,98242.05
2019-01-10T07:57:32.287Z,98244.17
2019-01-10T07:59:10.770Z,98246.07
2019-01-10T08:00:46.696Z,98250.22
2019-01-10T08:02:22.004Z,98249.44
2019-01-10T08:03:58.011Z,98244.73
2019-01-10T08:05:33.985Z,98246.53
2019-01-10T08:07:09.932Z,98248.20
2019-01-10T08:08:45.702Z,98251.90
2019-01-10T08:10:21.381Z,98254.36
2019-01-10T08:12:00.670Z,98246.77
2019-01-10T08:13:35.069Z,98251.44
2019-01-10T08:17:16.168Z,98256.91
2019-01-10T08:21:41.709Z,98263.98
2019-01-10T08:26:42.561Z,98267.19
2019-01-10T08:28:17.937Z,98269.41
2019-01-10T08:29:53.598Z,98269.55
2019-01-10T08:38:15.457Z,98275.66
2019-01-10T08:40:11.645Z,98274.91
2019-01-10T08:42:00.997Z,98273.34
2019-01-10T08:44:15.641Z,98278.16
2019-01-10T08:46:03.332Z,98274.12
2019-01-10T08:47:39.397Z,98273.14
2019-01-10T08:49:54.127Z,98275.24
2019-01-10T08:51:29.605Z,98277.37
2019-01-10T08:53:58.348Z,98275.02
2019-01-10T08:55:21.509Z,98277.01
2019-01-10T08:56:57.239Z,98277.01
2019-01-10T09:00:53.386Z,98273.60
2019-01-10T09:02:49.398Z,98279.49
2019-01-10T09:04:40.126Z,98278.73
2019-01-10T09:08:18.210Z,98277.63
2019-01-10T09:10:04.636Z,98281.32
2019-01-10T09:12:19.618Z,98289.50
2019-01-10T09:13:55.032Z,98288.25
2019-01-10T09:17:51.419Z,98298.44
2019-01-10T09:19:47.394Z,98294.41
2019-01-10T09:21:24.783Z,98299.00
2019-01-10T09:23:01.086Z,98304.59
2019-01-10T09:24:36.366Z,98309.96
2019-01-10T09:26:11.653Z,98311.98
2019-01-10T09:27:47.232Z,98314.77
2019-01-10T09:29:22.591Z,98315.89
2019-01-10T09:30:57.788Z,98313.36
2019-01-10T09:32:33.179Z,98320.88
2019-01-10T09:34:09.445Z,98312.91
2019-01-10T09:35:44.720Z,98322.45
2019-01-10T09:37:20.357Z,98323.66
2019-01-10T09:38:55.655Z,98326.67
2019-01-10T09:40:32.677Z,98328.78
2019-01-10T09:42:11.290Z,98329.36
2019-01-10T09:43:47.095Z,98329.02
2019-01-10T09:46:02.590Z,98329.72
2019-01-10T09:47:50.096Z,98330.92
2019-01-10T09:49:37.165Z,98332.05
2019-01-10T09:51:02.619Z,98335.75
2019-01-10T09:52:39.409Z,98331.18
2019-01-10T09:54:18.422Z,98334.09
2019-01-10T09:55:51.992Z,98345.73
2019-01-10T09:57:31.885Z,98340.23
2019-01-10T09:59:07.588Z,98345.05
2019-01-10T10:01:07.911Z,98346.81
2019-01-10T10:02:58.981Z,98346.71
2019-01-10T10:06:07.896Z,98344.81
2019-01-10T10:09:54.196Z,98352.20
2019-01-10T10:15:52.412Z,98362.63
2019-01-10T10:19:20.879Z,98358.95
2019-01-10T10:22:56.761Z,98363.55
2019-01-10T10:24:38.276Z,98367.70
2019-01-10T10:26:15.431Z,98369.93
2019-01-10T10:27:56.530Z,98372.50
2019-01-10T10:29:33.505Z,98369.58
2019-01-10T10:31:20.794Z,98367.94
2019-01-10T10:32:46.647Z,98372.73
2019-01-10T10:35:01.657Z,98370.17
2019-01-10T10:36:37.748Z,98370.73
2019-01-10T10:44:53.316Z,98380.00
2019-01-10T10:47:08.005Z,98375.42
2019-01-10T10:48:44.375Z,98371.73
2019-01-10T10:50:23.059Z,98373.19
2019-01-10T10:51:58.489Z,98371.08
2019-01-10T10:53:35.908Z,98376.22
2019-01-10T10:55:13.398Z,98379.58
2019-01-10T10:56:48.679Z,98376.77
2019-01-10T10:58:25.572Z,98374.41
2019-01-10T11:00:01.506Z,98369.82
2019-01-10T11:01:57.972Z,98380.24
2019-01-10T11:03:35.853Z,98377.23
2019-01-10T11:05:11.869Z,98378.13
2019-01-10T11:06:48.576Z,98380.58
2019-01-10T11:08:24.490Z,98369.61
2019-01-10T11:10:00.704Z,98366.58
2019-01-10T11:11:37.770Z,98371.84
2019-01-10T11:13:15.683Z,98374.09
2019-01-10T11:14:51.495Z,98380.36
2019-01-10T11:16:45.846Z,98372.75
2019-01-10T11:20:24.346Z,98372.65
2019-01-10T11:24:14.328Z,98373.99
2019-01-10T11:26:00.988Z,98366.58
2019-01-10T11:27:50.974Z,98375.55
2019-01-10T11:32:01.924Z,98375.98
2019-01-10T11:33:37.469Z,98376.55
2019-01-10T11:35:13.967Z,98379.02
2019-01-10T11:36:50.397Z,98380.91
2019-01-10T11:38:27.845Z,98378.80
2019-01-10T11:40:08.233Z,98377.67
2019-01-10T11:41:43.170Z,98380.34
2019-01-10T11:43:18.881Z,98385.30
2019-01-10T11:44:54.878Z,98380.36
2019-01-10T11:47:09.545Z,98375.08
2019-01-10T11:51:15.435Z,98380.56
2019-01-10T11:52:50.920Z,98375.84
2019-01-10T11:54:39.793Z,98374.27
2019-01-10T11:56:10.528Z,98374.36
2019-01-10T11:59:47.480Z,98369.70
2019-01-10T12:05:47.332Z,98373.17
2019-01-10T12:07:55.099Z,98376.52
2019-01-10T12:09:53.742Z,98380.53
2019-01-10T12:11:34.381Z,98381.53
2019-01-10T12:13:12.363Z,98390.62
2019-01-10T12:14:57.519Z,98390.50
2019-01-10T12:18:48.693Z,98396.58
2019-01-10T12:20:27.899Z,98384.92
2019-01-10T12:22:03.475Z,98390.21
2019-01-10T12:23:39.641Z,98386.94
2019-01-10T12:25:17.091Z,98390.75
2019-01-10T12:26:55.660Z,98391.09
2019-01-10T12:28:31.486Z,98391.78
2019-01-10T12:36:19.841Z,98398.61
2019-01-10T12:39:56.584Z,98390.53
2019-01-10T12:41:44.457Z,98384.22
2019-01-10T12:43:23.655Z,98387.92
2019-01-10T12:45:00.863Z,98385.98
2019-01-10T12:51:17.308Z,98382.73
2019-01-10T12:52:57.609Z,98377.44
2019-01-10T13:01:45.464Z,98386.66
2019-01-10T13:03:23.831Z,98386.24
2019-01-10T13:05:02.938Z,98386.72
2019-01-10T13:06:42.999Z,98384.09
2019-01-10T13:08:21.537Z,98393.89
2019-01-10T13:10:00.847Z,98391.42
2019-01-10T13:11:41.830Z,98399.49
2019-01-10T13:13:23.540Z,98392.77
2019-01-10T13:15:00.783Z,98395.52
2019-01-10T13:16:46.444Z,98400.03
2019-01-10T13:18:17.768Z,98401.95
2019-01-10T13:19:54.386Z,98403.89
2019-01-10T13:21:41.182Z,98393.67
2019-01-10T13:23:23.857Z,98395.22
2019-01-10T13:25:00.694Z,98394.77
2019-01-10T13:26:39.185Z,98393.89
2019-01-10T13:28:23.109Z,98401.29
2019-01-10T13:30:03.498Z,98403.22
2019-01-10T13:36:51.374Z,98413.84
2019-01-10T13:38:45.877Z,98417.86
2019-01-10T13:40:42.887Z,98415.40
2019-01-10T13:42:22.244Z,98418.84
2019-01-10T13:44:01.773Z,98418.52
2019-01-10T13:45:47.453Z,98425.94
2019-01-10T13:47:52.668Z,98422.34
2019-01-10T13:49:53.018Z,98416.09
2019-01-10T13:51:57.411Z,98426.17
2019-01-10T13:53:52.287Z,98425.84
2019-01-10T14:02:16.838Z,98427.75
2019-01-10T14:04:02.103Z,98427.64
2019-01-10T14:05:41.239Z,98424.94
2019-01-10T14:07:26.944Z,98424.38
2019-01-10T14:09:08.960Z,98428.87
2019-01-10T14:10:44.016Z,98432.69
2019-01-10T14:12:23.555Z,98430.34
2019-01-10T14:14:00.148Z,98421.38
2019-01-10T14:16:16.049Z,98429.78
2019-01-10T14:17:51.842Z,98423.94
2019-01-10T14:25:16.628Z,98421.70
2019-01-10T14:27:05.060Z,98420.81
2019-01-10T14:31:05.187Z,98417.80
2019-01-10T14:32:41.235Z,98410.95
2019-01-10T14:34:22.643Z,98414.30
2019-01-10T14:36:01.686Z,98414.66
2019-01-10T14:37:48.297Z,98407.25
2019-01-10T14:42:00.690Z,98406.69
2019-01-10T14:43:59.607Z,98414.08
2019-01-10T14:46:09.093Z,98398.17
2019-01-10T14:47:36.882Z,98401.77
2019-01-10T14:49:24.136Z,98397.51
2019-01-10T14:51:18.926Z,98390.77
2019-01-10T14:52:54.563Z,98395.70
2019-01-10T14:54:31.849Z,98399.28
2019-01-10T14:56:09.027Z,98402.53
2019-01-10T14:58:22.387Z,98404.67
2019-01-10T14:59:58.097Z,98399.28
2019-01-10T15:01:53.110Z,98405.21
2019-01-10T15:07:21.694Z,98411.59
2019-01-10T15:09:11.555Z,98415.63
2019-01-10T15:10:50.282Z,98416.75
2019-01-10T15:12:12.692Z,98417.20
2019-01-10T15:13:48.762Z,98423.59
2019-01-10T15:17:37.937Z,98417.98
2019-01-10T15:19:33.107Z,98415.73
2019-01-10T15:25:12.148Z,98417.63
2019-01-10T15:35:55.514Z,98415.28
2019-01-10T15:40:02.067Z,98407.30
2019-01-10T15:44:09.488Z,98415.81
2019-01-10T15:45:58.921Z,98415.36
2019-01-10T15:47:47.015Z,98411.00
2019-01-10T15:56:17.845Z,98407.86
2019-01-10T15:57:57.517Z,98409.86
2019-01-10T15:59:37.384Z,98404.81
2019-01-10T16:01:37.273Z,98408.61
2019-01-10T16:03:17.731Z,98409.30
2019-01-10T16:04:56.815Z,98406.72
2019-01-10T16:06:34.477Z,98404.69
2019-01-10T16:08:22.046Z,98414.41
2019-01-10T16:09:57.878Z,98412.05
2019-01-10T16:11:34.865Z,98409.14
2019-01-10T16:13:11.227Z,98413.79
2019-01-10T16:14:47.049Z,98415.56
2019-01-10T16:16:22.650Z,98417.13
2019-01-10T16:18:00.477Z,98421.16
2019-01-10T16:19:35.872Z,98420.47
2019-01-10T16:21:11.665Z,98416.55
2019-01-10T16:22:48.974Z,98418.11
2019-01-10T16:24:25.263Z,98412.61
2019-01-10T16:26:01.106Z,98411.04
2019-01-10T16:27:40.308Z,98411.59
2019-01-10T16:29:17.259Z,98414.05
2019-01-10T16:30:54.103Z,98407.01
2019-01-10T16:32:34.129Z,98408.81
2019-01-10T16:34:15.162Z,98411.92
2019-01-10T16:35:59.160Z,98412.48
2019-01-10T16:37:37.869Z,98407.66
2019-01-10T16:39:14.043Z,98404.33
2019-01-10T16:40:55.073Z,98399.51
2019-01-10T16:42:31.290Z,98404.66
2019-01-10T16:44:09.658Z,98401.51
2019-01-10T16:48:10.425Z,98404.98
2019-01-10T16:58:14.813Z,98407.70
2019-01-10T16:59:58.088Z,98413.40
2019-01-10T17:01:36.298Z,98415.98
2019-01-10T17:03:27.173Z,98414.19
2019-01-10T17:05:02.725Z,98414.84
2019-01-10T17:07:29.072Z,98416.27
2019-01-10T17:09:10.258Z,98414.38
2019-01-10T17:10:47.069Z,98415.48
2019-01-10T17:12:25.559Z,98413.48
2019-01-10T17:14:04.512Z,98411.04
2019-01-10T17:16:19.914Z,98423.35
2019-01-10T17:20:24.019Z,98420.07
2019-01-10T17:22:01.400Z,98411.92
2019-01-10T17:23:38.089Z,98415.25
2019-01-10T17:25:18.885Z,98416.69
2019-01-10T17:26:55.593Z,98410.30
2019-01-10T17:28:37.898Z,98419.47
2019-01-10T17:30:50.204Z,98418.36
2019-01-10T17:42:35.140Z,98415.91
2019-01-10T17:44:34.461Z,98421.97
2019-01-10T17:46:22.303Z,98423.44
2019-01-10T17:48:37.860Z,98422.98
2019-01-10T17:50:22.509Z,98423.63
2019-01-10T17:51:59.592Z,98420.26
2019-01-10T17:53:37.139Z,98422.84
2019-01-10T17:55:15.650Z,98428.77
2019-01-10T17:56:55.169Z,98435.02
2019-01-10T17:58:40.161Z,98427.30
2019-01-10T18:02:52.670Z,98424.84
2019-01-10T18:11:20.171Z,98415.91
2019-01-10T18:13:35.192Z,98420.59
2019-01-10T18:19:36.721Z,98413.95
2019-01-10T18:24:12.860Z,98414.98
2019-01-10T18:26:08.473Z,98407.94
2019-01-10T18:28:13.649Z,98413.53
2019-01-10T18:29:53.093Z,98416.09
2019-01-10T18:32:05.573Z,98411.97
2019-01-10T18:37:49.334Z,98414.05
2019-01-10T18:39:24.479Z,98421.36
2019-01-10T18:41:09.051Z,98417.01
2019-01-10T18:43:05.627Z,98419.69
2019-01-10T18:44:47.173Z,98419.78
2019-01-10T18:47:02.146Z,98424.92
2019-01-10T18:48:39.808Z,98426.64
2019-01-10T18:50:30.482Z,98426.73
2019-01-10T18:52:08.086Z,98429.20
2019-01-10T18:53:46.643Z,98422.24
2019-01-10T18:55:23.265Z,98429.73
2019-01-10T18:56:59.268Z,98421.55
2019-01-10T18:58:35.391Z,98423.36
2019-01-10T19:02:01.738Z,98418.69
2019-01-10T19:03:39.173Z,98419.84
2019-01-10T19:05:23.186Z,98414.00
2019-01-10T19:07:05.708Z,98419.47
2019-01-10T19:08:46.628Z,98424.52
2019-01-10T19:10:23.564Z,98424.05
2019-01-10T19:12:00.229Z,98423.59
2019-01-10T19:13:39.845Z,98424.61
2019-01-10T19:15:20.438Z,98425.72
2019-01-10T19:16:58.145Z,98426.52
2019-01-10T19:18:35.516Z,98437.14
2019-01-10T19:20:26.178Z,98432.33
2019-01-10T19:22:05.700Z,98433.21
2019-01-10T19:23:47.613Z,98428.27
2019-01-10T19:25:37.492Z,98433.58
2019-01-10T19:27:32.767Z,98438.34
2019-01-10T19:29:08.916Z,98431.17
2019-01-10T19:31:04.526Z,98430.30
2019-01-10T19:32:56.359Z,98432.33
2019-01-10T19:36:29.718Z,98434.33
2019-01-10T19:38:16.310Z,98424.38
2019-01-10T19:42:15.794Z,98428.64
2019-01-10T19:43:58.850Z,98425.86
2019-01-10T19:45:55.057Z,98424.94
2019-01-10T19:47:36.222Z,98423.72
2019-01-10T19:49:13.726Z,98418.22
2019-01-10T19:50:53.562Z,98422.48
2019-01-10T19:52:30.338Z,98422.16
2019-01-10T19:54:06.802Z,98424.38
2019-01-10T19:55:42.829Z,98421.92
2019-01-10T19:57:21.280Z,98423.95
2019-01-10T19:59:00.362Z,98417.16
2019-01-10T20:00:56.410Z,98418.41
2019-01-10T20:02:32.762Z,98417.05
2019-01-10T20:04:09.242Z,98429.92
2019-01-10T20:05:44.716Z,98425.02
2019-01-10T20:07:20.335Z,98426.36
2019-01-10T20:11:46.382Z,98424.65
2019-01-10T20:13:22.547Z,98424.33
2019-01-10T20:14:58.434Z,98426.69
2019-01-10T20:18:34.964Z,98429.38
2019-01-10T20:20:43.064Z,98430.52
2019-01-10T20:22:21.235Z,98427.61
2019-01-10T20:24:03.501Z,98428.63
2019-01-10T20:25:44.600Z,98435.23
2019-01-10T20:27:22.135Z,98438.59
2019-01-10T20:29:00.716Z,98442.28
2019-01-10T20:34:49.716Z,98432.52
2019-01-10T20:36:27.419Z,98435.89
2019-01-10T20:38:05.342Z,98437.70
2019-01-10T20:39:43.862Z,98437.66
2019-01-10T20:41:20.938Z,98437.43
2019-01-10T20:45:08.338Z,98431.64
2019-01-10T20:46:54.938Z,98428.48
2019-01-10T20:51:18.926Z,98430.62
2019-01-10T20:52:57.022Z,98424.92
2019-01-10T20:55:28.446Z,98425.19
2019-01-10T20:57:42.638Z,98422.83
2019-01-10T20:59:27.112Z,98420.67
2019-01-10T21:03:36.898Z,98414.31
2019-01-10T21:05:24.740Z,98417.00
2019-01-10T21:11:42.275Z,98420.50
2019-01-10T21:17:29.947Z,98416.25
2019-01-10T21:19:08.431Z,98417.13
2019-01-10T21:20:44.593Z,98417.13
2019-01-10T21:22:29.300Z,98419.03
2019-01-10T21:24:09.434Z,98419.88
2019-01-10T21:25:47.311Z,98417.33
2019-01-10T21:27:54.823Z,98410.42
2019-01-10T21:32:05.505Z,98405.38
2019-01-10T21:33:40.682Z,98405.83
2019-01-10T21:43:43.176Z,98409.10
2019-01-10T21:47:40.840Z,98403.72
2019-01-10T21:50:06.466Z,98401.82
2019-01-10T21:51:43.666Z,98402.51
2019-01-10T21:57:30.450Z,98402.28
2019-01-10T22:05:27.034Z,98397.69
2019-01-10T22:07:35.546Z,98393.55
2019-01-10T22:13:13.173Z,98392.22
2019-01-10T22:15:19.072Z,98393.33
2019-01-10T22:23:04.588Z,98379.09
2019-01-10T22:24:40.826Z,98370.68
2019-01-10T22:26:20.013Z,98376.61
2019-01-10T22:27:58.543Z,98373.50
2019-01-10T22:29:34.612Z,98369.34
2019-01-10T22:31:30.453Z,98370.25
2019-01-10T22:39:52.947Z,98354.23
2019-01-10T22:43:30.486Z,98353.78
2019-01-10T22:45:28.684Z,98355.91
2019-01-10T22:47:16.190Z,98354.23
2019-01-10T22:49:06.397Z,98342.47
2019-01-10T22:53:02.522Z,98343.26
2019-01-10T22:56:45.145Z,98336.77
2019-01-10T23:01:20.244Z,98337.02
2019-01-10T23:03:06.572Z,98326.14
2019-01-10T23:05:21.439Z,98320.77
2019-01-10T23:13:22.397Z,98313.17
2019-01-10T23:19:28.732Z,98314.39
2019-01-10T23:21:04.997Z,98307.91
2019-01-10T23:22:55.570Z,98321.11
2019-01-10T23:24:31.847Z,98318.65
2019-01-10T23:26:07.578Z,98312.27
2019-01-10T23:27:44.485Z,98310.81
2019-01-10T23:31:53.879Z,98310.59
2019-01-10T23:33:29.709Z,98306.89
2019-01-10T23:38:36.151Z,98302.53
2019-01-10T23:39:43.460Z,98297.48
2019-01-10T23:43:26.149Z,98291.00
2019-01-10T23:47:02.222Z,98300.85
2019-01-10T23:52:14.640Z,98302.30
2019-01-10T23:54:09.469Z,98297.92
2019-01-10T23:55:56.704Z,98299.72
2019-01-10T23:58:23.445Z,98296.93
